sensor_id;sensor_type;location;lat;lon;timestamp;pressure;altitude;pressure_sealevel;temperature;humidity
58769;BME280;44536;47.474;19.056;2023-03-19T00:00:20;100912.94;;;4.07;77.24
58769;BME280;44536;47.474;19.056;2023-03-19T00:03:22;100913.53;;;4.14;77.27
58769;BME280;44536;47.474;19.056;2023-03-19T00:06:25;100910.50;;;4.23;76.87
58769;BME280;44536;47.474;19.056;2023-03-19T00:09:27;100908.91;;;4.19;76.84
58769;BME280;44536;47.474;19.056;2023-03-19T00:12:30;100902.88;;;4.17;77.33
58769;BME280;44536;47.474;19.056;2023-03-19T00:15:32;100901.50;;;4.08;76.55
58769;BME280;44536;47.474;19.056;2023-03-19T00:18:35;100902.13;;;4.15;77.50
58769;BME280;44536;47.474;19.056;2023-03-19T00:21:37;100899.22;;;4.21;75.85
58769;BME280;44536;47.474;19.056;2023-03-19T00:24:39;100901.09;;;4.17;76.02
58769;BME280;44536;47.474;19.056;2023-03-19T00:27:42;100897.13;;;4.09;76.49
58769;BME280;44536;47.474;19.056;2023-03-19T00:30:45;100897.97;;;4.29;74.21
58769;BME280;44536;47.474;19.056;2023-03-19T00:33:48;100891.03;;;4.28;73.91
58769;BME280;44536;47.474;19.056;2023-03-19T00:36:50;100891.69;;;4.33;73.05
58769;BME280;44536;47.474;19.056;2023-03-19T00:39:53;100885.06;;;4.45;71.92
58769;BME280;44536;47.474;19.056;2023-03-19T00:42:55;100881.53;;;4.46;72.06
58769;BME280;44536;47.474;19.056;2023-03-19T00:45:58;100882.19;;;4.51;71.53
58769;BME280;44536;47.474;19.056;2023-03-19T00:49:01;100883.44;;;4.63;70.66
58769;BME280;44536;47.474;19.056;2023-03-19T00:52:04;100881.37;;;4.70;70.06
58769;BME280;44536;47.474;19.056;2023-03-19T00:55:06;100881.47;;;4.48;71.09
58769;BME280;44536;47.474;19.056;2023-03-19T00:58:10;100880.47;;;4.30;72.39
58769;BME280;44536;47.474;19.056;2023-03-19T01:01:15;100884.72;;;4.32;71.62
58769;BME280;44536;47.474;19.056;2023-03-19T01:04:18;100870.50;;;4.58;70.00
58769;BME280;44536;47.474;19.056;2023-03-19T01:07:20;100869.66;;;4.58;69.88
58769;BME280;44536;47.474;19.056;2023-03-19T01:10:23;100879.38;;;4.56;69.98
58769;BME280;44536;47.474;19.056;2023-03-19T01:13:25;100875.09;;;4.33;71.71
58769;BME280;44536;47.474;19.056;2023-03-19T01:16:28;100877.03;;;4.08;72.54
58769;BME280;44536;47.474;19.056;2023-03-19T01:19:31;100875.22;;;3.88;74.38
58769;BME280;44536;47.474;19.056;2023-03-19T01:22:36;100877.16;;;3.83;74.16
58769;BME280;44536;47.474;19.056;2023-03-19T01:25:39;100879.25;;;3.75;74.62
58769;BME280;44536;47.474;19.056;2023-03-19T01:28:42;100874.97;;;3.94;73.33
58769;BME280;44536;47.474;19.056;2023-03-19T01:31:44;100876.25;;;3.84;74.46
58769;BME280;44536;47.474;19.056;2023-03-19T01:34:47;100876.84;;;3.69;74.74
58769;BME280;44536;47.474;19.056;2023-03-19T01:37:49;100878.22;;;3.57;76.74
58769;BME280;44536;47.474;19.056;2023-03-19T01:40:52;100872.53;;;3.46;76.32
58769;BME280;44536;47.474;19.056;2023-03-19T01:43:54;100869.69;;;3.52;75.27
58769;BME280;44536;47.474;19.056;2023-03-19T01:47:03;100875.34;;;3.85;73.38
58769;BME280;44536;47.474;19.056;2023-03-19T01:50:19;100878.09;;;3.82;73.20
58769;BME280;44536;47.474;19.056;2023-03-19T01:53:30;100877.53;;;3.74;74.50
58769;BME280;44536;47.474;19.056;2023-03-19T01:56:36;100883.28;;;3.61;74.95
58769;BME280;44536;47.474;19.056;2023-03-19T01:59:43;100886.44;;;3.48;75.36
58769;BME280;44536;47.474;19.056;2023-03-19T02:02:51;100881.41;;;3.42;74.97
58769;BME280;44536;47.474;19.056;2023-03-19T02:05:56;100880.00;;;3.33;76.11
58769;BME280;44536;47.474;19.056;2023-03-19T02:09:00;100879.31;;;3.28;75.69
58769;BME280;44536;47.474;19.056;2023-03-19T02:12:04;100881.16;;;3.26;76.16
58769;BME280;44536;47.474;19.056;2023-03-19T02:15:07;100881.47;;;3.17;76.74
58769;BME280;44536;47.474;19.056;2023-03-19T02:18:09;100877.22;;;3.14;77.10
58769;BME280;44536;47.474;19.056;2023-03-19T02:21:17;100881.59;;;3.14;77.36
58769;BME280;44536;47.474;19.056;2023-03-19T02:24:29;100876.25;;;3.17;76.62
58769;BME280;44536;47.474;19.056;2023-03-19T02:27:34;100875.06;;;3.25;76.04
58769;BME280;44536;47.474;19.056;2023-03-19T02:30:37;100870.66;;;3.26;76.71
58769;BME280;44536;47.474;19.056;2023-03-19T02:33:40;100871.13;;;3.37;75.13
58769;BME280;44536;47.474;19.056;2023-03-19T02:36:47;100875.94;;;3.70;73.22
58769;BME280;44536;47.474;19.056;2023-03-19T02:40:03;100870.69;;;3.70;72.95
58769;BME280;44536;47.474;19.056;2023-03-19T02:43:09;100878.28;;;3.55;74.69
58769;BME280;44536;47.474;19.056;2023-03-19T02:46:12;100864.34;;;3.31;76.21
58769;BME280;44536;47.474;19.056;2023-03-19T02:49:15;100856.75;;;3.24;75.93
58769;BME280;44536;47.474;19.056;2023-03-19T02:52:18;100858.28;;;3.53;73.49
58769;BME280;44536;47.474;19.056;2023-03-19T02:55:20;100861.91;;;3.71;72.60
58769;BME280;44536;47.474;19.056;2023-03-19T02:58:23;100855.75;;;3.72;72.27
58769;BME280;44536;47.474;19.056;2023-03-19T03:01:25;100853.87;;;3.75;71.89
58769;BME280;44536;47.474;19.056;2023-03-19T03:04:28;100857.16;;;3.80;71.75
58769;BME280;44536;47.474;19.056;2023-03-19T03:07:30;100858.00;;;3.81;71.34
58769;BME280;44536;47.474;19.056;2023-03-19T03:10:33;100859.78;;;3.80;71.14
58769;BME280;44536;47.474;19.056;2023-03-19T03:13:37;100872.59;;;3.66;72.22
58769;BME280;44536;47.474;19.056;2023-03-19T03:16:40;100865.03;;;3.58;72.23
58769;BME280;44536;47.474;19.056;2023-03-19T03:19:42;100861.56;;;3.58;72.57
58769;BME280;44536;47.474;19.056;2023-03-19T03:22:45;100858.50;;;3.69;71.56
58769;BME280;44536;47.474;19.056;2023-03-19T03:25:51;100865.34;;;3.51;72.41
58769;BME280;44536;47.474;19.056;2023-03-19T03:28:53;100869.16;;;3.42;72.89
58769;BME280;44536;47.474;19.056;2023-03-19T03:31:56;100867.31;;;3.22;74.16
58769;BME280;44536;47.474;19.056;2023-03-19T03:34:58;100869.56;;;3.10;74.89
58769;BME280;44536;47.474;19.056;2023-03-19T03:38:00;100869.03;;;3.00;75.73
58769;BME280;44536;47.474;19.056;2023-03-19T03:41:05;100864.69;;;2.99;75.91
58769;BME280;44536;47.474;19.056;2023-03-19T03:44:09;100866.56;;;2.95;75.14
58769;BME280;44536;47.474;19.056;2023-03-19T03:47:13;100875.50;;;3.13;74.28
58769;BME280;44536;47.474;19.056;2023-03-19T03:50:16;100864.53;;;3.04;77.04
58769;BME280;44536;47.474;19.056;2023-03-19T03:53:18;100871.94;;;2.92;76.07
58769;BME280;44536;47.474;19.056;2023-03-19T03:56:21;100870.72;;;2.78;77.55
58769;BME280;44536;47.474;19.056;2023-03-19T03:59:24;100871.78;;;2.72;77.88
58769;BME280;44536;47.474;19.056;2023-03-19T04:02:27;100865.31;;;2.82;75.99
58769;BME280;44536;47.474;19.056;2023-03-19T04:05:30;100871.94;;;2.67;76.53
58769;BME280;44536;47.474;19.056;2023-03-19T04:08:32;100863.41;;;2.62;76.73
58769;BME280;44536;47.474;19.056;2023-03-19T04:11:35;100873.06;;;2.60;77.58
58769;BME280;44536;47.474;19.056;2023-03-19T04:14:37;100869.78;;;2.55;77.19
58769;BME280;44536;47.474;19.056;2023-03-19T04:17:40;100876.03;;;2.51;77.37
58769;BME280;44536;47.474;19.056;2023-03-19T04:20:43;100877.28;;;2.64;76.66
58769;BME280;44536;47.474;19.056;2023-03-19T04:23:48;100867.81;;;2.85;75.50
58769;BME280;44536;47.474;19.056;2023-03-19T04:26:50;100863.50;;;2.84;75.27
58769;BME280;44536;47.474;19.056;2023-03-19T04:29:54;100858.78;;;2.69;76.86
58769;BME280;44536;47.474;19.056;2023-03-19T04:32:57;100859.75;;;2.66;76.60
58769;BME280;44536;47.474;19.056;2023-03-19T04:36:00;100854.09;;;2.79;75.51
58769;BME280;44536;47.474;19.056;2023-03-19T04:39:03;100854.63;;;2.88;74.89
58769;BME280;44536;47.474;19.056;2023-03-19T04:42:05;100847.37;;;2.95;74.61
58769;BME280;44536;47.474;19.056;2023-03-19T04:45:08;100852.69;;;2.93;74.54
58769;BME280;44536;47.474;19.056;2023-03-19T04:48:11;100855.03;;;3.01;73.94
58769;BME280;44536;47.474;19.056;2023-03-19T04:51:14;100864.69;;;2.99;74.65
58769;BME280;44536;47.474;19.056;2023-03-19T04:54:18;100851.03;;;2.91;74.89
58769;BME280;44536;47.474;19.056;2023-03-19T04:57:21;100858.03;;;2.90;74.78
58769;BME280;44536;47.474;19.056;2023-03-19T05:00:24;100864.13;;;2.91;74.88
58769;BME280;44536;47.474;19.056;2023-03-19T05:03:27;100870.31;;;2.88;75.07
58769;BME280;44536;47.474;19.056;2023-03-19T05:06:30;100869.19;;;2.95;74.73
58769;BME280;44536;47.474;19.056;2023-03-19T05:09:33;100875.69;;;3.09;73.95
58769;BME280;44536;47.474;19.056;2023-03-19T05:12:35;100866.50;;;3.20;73.36
58769;BME280;44536;47.474;19.056;2023-03-19T05:15:41;100875.50;;;3.13;74.17
58769;BME280;44536;47.474;19.056;2023-03-19T05:18:45;100876.12;;;3.20;73.99
58769;BME280;44536;47.474;19.056;2023-03-19T05:21:48;100882.84;;;3.27;74.09
58769;BME280;44536;47.474;19.056;2023-03-19T05:24:51;100869.72;;;3.50;73.06
58769;BME280;44536;47.474;19.056;2023-03-19T05:27:54;100877.53;;;3.74;73.02
58769;BME280;44536;47.474;19.056;2023-03-19T05:30:57;100881.19;;;3.70;73.08
58769;BME280;44536;47.474;19.056;2023-03-19T05:33:59;100881.25;;;3.90;70.31
58769;BME280;44536;47.474;19.056;2023-03-19T05:37:03;100887.72;;;4.03;70.48
58769;BME280;44536;47.474;19.056;2023-03-19T05:40:06;100877.91;;;4.49;70.04
58769;BME280;44536;47.474;19.056;2023-03-19T05:43:09;100886.44;;;5.32;64.07
58769;BME280;44536;47.474;19.056;2023-03-19T05:46:12;100890.22;;;7.04;58.97
58769;BME280;44536;47.474;19.056;2023-03-19T05:49:14;100891.66;;;8.65;52.65
58769;BME280;44536;47.474;19.056;2023-03-19T05:52:17;100887.78;;;10.24;47.75
58769;BME280;44536;47.474;19.056;2023-03-19T05:55:19;100880.47;;;11.91;44.06
58769;BME280;44536;47.474;19.056;2023-03-19T05:58:22;100881.25;;;12.74;40.91
58769;BME280;44536;47.474;19.056;2023-03-19T06:01:25;100874.44;;;12.59;39.97
58769;BME280;44536;47.474;19.056;2023-03-19T06:04:28;100879.41;;;13.21;38.55
58769;BME280;44536;47.474;19.056;2023-03-19T06:07:30;100887.09;;;13.69;38.35
58769;BME280;44536;47.474;19.056;2023-03-19T06:10:34;100879.44;;;16.41;33.67
58769;BME280;44536;47.474;19.056;2023-03-19T06:13:38;100888.72;;;17.60;31.08
58769;BME280;44536;47.474;19.056;2023-03-19T06:16:40;100886.03;;;18.58;29.38
58769;BME280;44536;47.474;19.056;2023-03-19T06:19:43;100896.69;;;19.88;26.93
58769;BME280;44536;47.474;19.056;2023-03-19T06:22:46;100892.84;;;19.48;27.64
58769;BME280;44536;47.474;19.056;2023-03-19T06:25:48;100899.84;;;17.65;28.93
58769;BME280;44536;47.474;19.056;2023-03-19T06:28:51;100895.34;;;16.04;31.34
58769;BME280;44536;47.474;19.056;2023-03-19T06:31:54;100896.47;;;16.79;30.72
58769;BME280;44536;47.474;19.056;2023-03-19T06:35:01;100908.84;;;16.22;30.93
58769;BME280;44536;47.474;19.056;2023-03-19T06:38:03;100904.75;;;16.18;31.56
58769;BME280;44536;47.474;19.056;2023-03-19T06:41:06;100913.00;;;15.15;33.16
58769;BME280;44536;47.474;19.056;2023-03-19T06:44:08;100919.53;;;14.60;34.00
58769;BME280;44536;47.474;19.056;2023-03-19T06:47:12;100927.16;;;14.33;34.31
58769;BME280;44536;47.474;19.056;2023-03-19T06:50:15;100927.19;;;13.89;35.32
58769;BME280;44536;47.474;19.056;2023-03-19T06:53:19;100923.66;;;15.06;33.74
58769;BME280;44536;47.474;19.056;2023-03-19T06:56:21;100929.72;;;15.69;32.25
58769;BME280;44536;47.474;19.056;2023-03-19T06:59:24;100927.97;;;14.97;33.19
58769;BME280;44536;47.474;19.056;2023-03-19T07:02:26;100921.97;;;15.35;32.44
58769;BME280;44536;47.474;19.056;2023-03-19T07:05:29;100930.91;;;14.94;33.89
58769;BME280;44536;47.474;19.056;2023-03-19T07:08:32;100921.44;;;14.69;33.77
58769;BME280;44536;47.474;19.056;2023-03-19T07:11:34;100921.63;;;13.70;35.42
58769;BME280;44536;47.474;19.056;2023-03-19T07:14:37;100923.66;;;13.89;34.60
58769;BME280;44536;47.474;19.056;2023-03-19T07:17:39;100912.56;;;13.17;36.29
58769;BME280;44536;47.474;19.056;2023-03-19T07:20:42;100914.16;;;13.42;35.29
58769;BME280;44536;47.474;19.056;2023-03-19T07:23:44;100908.28;;;12.92;36.35
58769;BME280;44536;47.474;19.056;2023-03-19T07:26:47;100911.97;;;10.84;40.28
58769;BME280;44536;47.474;19.056;2023-03-19T07:29:50;100909.03;;;9.54;43.60
58769;BME280;44536;47.474;19.056;2023-03-19T07:32:53;100909.00;;;9.27;44.85
58769;BME280;44536;47.474;19.056;2023-03-19T07:35:56;100909.50;;;8.90;45.58
58769;BME280;44536;47.474;19.056;2023-03-19T07:38:59;100907.63;;;8.92;46.02
58769;BME280;44536;47.474;19.056;2023-03-19T07:42:01;100923.69;;;8.89;46.46
58769;BME280;44536;47.474;19.056;2023-03-19T07:45:04;100919.63;;;8.08;47.51
58769;BME280;44536;47.474;19.056;2023-03-19T07:48:07;100916.75;;;7.81;48.92
58769;BME280;44536;47.474;19.056;2023-03-19T07:51:09;100908.53;;;8.33;47.82
58769;BME280;44536;47.474;19.056;2023-03-19T07:54:12;100903.22;;;8.48;48.33
58769;BME280;44536;47.474;19.056;2023-03-19T07:57:14;100900.19;;;8.24;47.66
58769;BME280;44536;47.474;19.056;2023-03-19T08:00:18;100911.56;;;7.95;48.54
58769;BME280;44536;47.474;19.056;2023-03-19T08:03:20;100904.84;;;8.35;47.36
58769;BME280;44536;47.474;19.056;2023-03-19T08:06:22;100901.84;;;8.11;47.89
58769;BME280;44536;47.474;19.056;2023-03-19T08:09:25;100906.28;;;8.41;46.92
58769;BME280;44536;47.474;19.056;2023-03-19T08:12:27;100889.16;;;8.48;46.49
58769;BME280;44536;47.474;19.056;2023-03-19T08:15:30;100896.09;;;8.19;47.58
58769;BME280;44536;47.474;19.056;2023-03-19T08:18:32;100891.34;;;8.55;46.30
58769;BME280;44536;47.474;19.056;2023-03-19T08:21:35;100886.72;;;8.59;46.09
58769;BME280;44536;47.474;19.056;2023-03-19T08:24:38;100891.34;;;8.55;45.94
58769;BME280;44536;47.474;19.056;2023-03-19T08:27:41;100881.13;;;8.49;46.91
58769;BME280;44536;47.474;19.056;2023-03-19T08:30:43;100887.13;;;8.67;46.39
58769;BME280;44536;47.474;19.056;2023-03-19T08:33:46;100898.19;;;8.88;45.59
58769;BME280;44536;47.474;19.056;2023-03-19T08:36:48;100890.16;;;9.04;45.18
58769;BME280;44536;47.474;19.056;2023-03-19T08:39:51;100896.69;;;8.98;45.45
58769;BME280;44536;47.474;19.056;2023-03-19T08:42:53;100899.03;;;9.03;45.50
58769;BME280;44536;47.474;19.056;2023-03-19T08:45:56;100894.63;;;9.32;44.59
58769;BME280;44536;47.474;19.056;2023-03-19T08:48:59;100895.00;;;9.11;45.02
58769;BME280;44536;47.474;19.056;2023-03-19T08:52:02;100901.91;;;9.28;44.91
58769;BME280;44536;47.474;19.056;2023-03-19T08:55:05;100900.16;;;9.41;44.78
58769;BME280;44536;47.474;19.056;2023-03-19T08:58:08;100889.38;;;9.44;44.15
58769;BME280;44536;47.474;19.056;2023-03-19T09:01:12;100893.44;;;9.64;43.46
58769;BME280;44536;47.474;19.056;2023-03-19T09:04:15;100886.94;;;9.41;43.69
58769;BME280;44536;47.474;19.056;2023-03-19T09:07:17;100883.72;;;9.36;44.31
58769;BME280;44536;47.474;19.056;2023-03-19T09:10:20;100880.50;;;9.45;44.03
58769;BME280;44536;47.474;19.056;2023-03-19T09:13:22;100876.97;;;9.59;43.93
58769;BME280;44536;47.474;19.056;2023-03-19T09:16:25;100874.78;;;9.66;43.68
58769;BME280;44536;47.474;19.056;2023-03-19T09:19:27;100874.59;;;9.69;43.79
58769;BME280;44536;47.474;19.056;2023-03-19T09:22:30;100874.78;;;9.92;43.83
58769;BME280;44536;47.474;19.056;2023-03-19T09:25:32;100882.91;;;10.04;42.80
58769;BME280;44536;47.474;19.056;2023-03-19T09:28:35;100879.03;;;9.95;42.68
58769;BME280;44536;47.474;19.056;2023-03-19T09:31:37;100879.19;;;10.06;43.27
58769;BME280;44536;47.474;19.056;2023-03-19T09:34:40;100877.91;;;9.99;42.98
58769;BME280;44536;47.474;19.056;2023-03-19T09:37:42;100872.94;;;10.07;42.44
58769;BME280;44536;47.474;19.056;2023-03-19T09:40:47;100867.25;;;10.13;42.34
58769;BME280;44536;47.474;19.056;2023-03-19T09:47:26;100850.72;;;10.62;41.63
58769;BME280;44536;47.474;19.056;2023-03-19T09:50:31;100855.06;;;11.01;40.82
58769;BME280;44536;47.474;19.056;2023-03-19T09:54:05;100847.41;;;11.09;40.32
58769;BME280;44536;47.474;19.056;2023-03-19T09:57:08;100847.19;;;11.25;39.93
58769;BME280;44536;47.474;19.056;2023-03-19T10:00:23;100838.19;;;11.75;39.06
58769;BME280;44536;47.474;19.056;2023-03-19T10:03:55;100840.69;;;12.59;37.33
58769;BME280;44536;47.474;19.056;2023-03-19T10:14:01;100834.31;;;14.89;33.19
58769;BME280;44536;47.474;19.056;2023-03-19T10:17:18;100831.88;;;15.47;32.96
58769;BME280;44536;47.474;19.056;2023-03-19T10:24:05;100823.34;;;16.49;30.21
58769;BME280;44536;47.474;19.056;2023-03-19T10:27:13;100830.72;;;15.00;32.45
58769;BME280;44536;47.474;19.056;2023-03-19T10:30:18;100815.16;;;15.14;32.48
58769;BME280;44536;47.474;19.056;2023-03-19T10:33:24;100810.41;;;16.16;31.18
58769;BME280;44536;47.474;19.056;2023-03-19T10:36:35;100810.66;;;16.51;30.87
58769;BME280;44536;47.474;19.056;2023-03-19T10:39:40;100808.19;;;16.11;30.75
58769;BME280;44536;47.474;19.056;2023-03-19T10:45:58;100796.28;;;15.46;31.48
58769;BME280;44536;47.474;19.056;2023-03-19T10:49:01;100794.59;;;15.45;31.09
58769;BME280;44536;47.474;19.056;2023-03-19T10:52:04;100785.25;;;15.30;31.77
58769;BME280;44536;47.474;19.056;2023-03-19T10:55:16;100784.97;;;14.83;33.23
58769;BME280;44536;47.474;19.056;2023-03-19T10:58:22;100774.94;;;14.76;33.64
58769;BME280;44536;47.474;19.056;2023-03-19T11:01:33;100764.62;;;14.92;33.68
58769;BME280;44536;47.474;19.056;2023-03-19T11:04:36;100766.41;;;15.22;33.02
58769;BME280;44536;47.474;19.056;2023-03-19T11:07:39;100767.75;;;14.97;33.32
58769;BME280;44536;47.474;19.056;2023-03-19T11:10:47;100769.47;;;15.17;32.59
58769;BME280;44536;47.474;19.056;2023-03-19T11:13:50;100769.56;;;15.46;32.45
58769;BME280;44536;47.474;19.056;2023-03-19T11:16:58;100748.91;;;15.77;31.42
58769;BME280;44536;47.474;19.056;2023-03-19T11:20:30;100746.44;;;16.88;30.18
58769;BME280;44536;47.474;19.056;2023-03-19T11:23:40;100749.81;;;17.99;28.25
58769;BME280;44536;47.474;19.056;2023-03-19T11:26:53;100735.69;;;18.14;27.95
58769;BME280;44536;47.474;19.056;2023-03-19T11:29:56;100731.94;;;19.35;27.08
58769;BME280;44536;47.474;19.056;2023-03-19T11:39:50;100714.78;;;20.66;24.23
58769;BME280;44536;47.474;19.056;2023-03-19T11:43:05;100712.72;;;23.18;21.86
58769;BME280;44536;47.474;19.056;2023-03-19T11:46:35;100710.59;;;22.69;21.39
58769;BME280;44536;47.474;19.056;2023-03-19T11:56:41;100695.81;;;23.31;20.91
58769;BME280;44536;47.474;19.056;2023-03-19T12:22:59;100652.91;;;22.77;21.00
58769;BME280;44536;47.474;19.056;2023-03-19T12:26:08;100647.16;;;23.16;20.39
58769;BME280;44536;47.474;19.056;2023-03-19T12:29:41;100642.12;;;23.13;20.46
58769;BME280;44536;47.474;19.056;2023-03-19T12:36:08;100640.75;;;21.99;21.02
58769;BME280;44536;47.474;19.056;2023-03-19T12:39:17;100642.12;;;23.34;20.08
58769;BME280;44536;47.474;19.056;2023-03-19T12:42:26;100636.63;;;22.26;21.03
58769;BME280;44536;47.474;19.056;2023-03-19T12:45:38;100618.34;;;21.38;21.82
58769;BME280;44536;47.474;19.056;2023-03-19T12:48:50;100628.94;;;22.00;22.10
58769;BME280;44536;47.474;19.056;2023-03-19T12:51:58;100626.94;;;22.97;20.47
58769;BME280;44536;47.474;19.056;2023-03-19T12:55:19;100619.41;;;22.93;20.63
58769;BME280;44536;47.474;19.056;2023-03-19T12:58:36;100620.66;;;20.96;22.14
58769;BME280;44536;47.474;19.056;2023-03-19T13:01:58;100604.19;;;21.59;22.05
58769;BME280;44536;47.474;19.056;2023-03-19T13:21:34;100582.59;;;22.11;21.81
58769;BME280;44536;47.474;19.056;2023-03-19T13:24:40;100585.53;;;20.50;23.44
58769;BME280;44536;47.474;19.056;2023-03-19T13:27:51;100585.59;;;20.26;24.12
58769;BME280;44536;47.474;19.056;2023-03-19T13:34:21;100577.03;;;18.60;25.87
58769;BME280;44536;47.474;19.056;2023-03-19T13:37:26;100568.31;;;17.90;26.96
58769;BME280;44536;47.474;19.056;2023-03-19T13:40:52;100570.16;;;17.45;27.85
58769;BME280;44536;47.474;19.056;2023-03-19T13:43:55;100563.69;;;16.77;29.25
58769;BME280;44536;47.474;19.056;2023-03-19T13:50:49;100556.06;;;16.54;29.39
58769;BME280;44536;47.474;19.056;2023-03-19T14:10:28;100539.81;;;16.66;29.60
58769;BME280;44536;47.474;19.056;2023-03-19T14:13:42;100530.53;;;17.31;28.32
58769;BME280;44536;47.474;19.056;2023-03-19T14:16:50;100522.41;;;17.23;28.16
58769;BME280;44536;47.474;19.056;2023-03-19T14:19:55;100530.56;;;17.57;27.59
58769;BME280;44536;47.474;19.056;2023-03-19T14:26:19;100534.09;;;16.96;28.23
58769;BME280;44536;47.474;19.056;2023-03-19T14:29:24;100535.09;;;17.13;28.24
58769;BME280;44536;47.474;19.056;2023-03-19T14:32:33;100526.84;;;16.43;28.97
58769;BME280;44536;47.474;19.056;2023-03-19T14:35:40;100532.69;;;16.02;29.53
58769;BME280;44536;47.474;19.056;2023-03-19T14:38:53;100530.06;;;16.19;29.38
58769;BME280;44536;47.474;19.056;2023-03-19T14:42:11;100521.25;;;16.09;29.72
58769;BME280;44536;47.474;19.056;2023-03-19T14:55:09;100521.47;;;16.43;29.46
58769;BME280;44536;47.474;19.056;2023-03-19T14:58:12;100523.97;;;16.27;29.48
58769;BME280;44536;47.474;19.056;2023-03-19T15:01:16;100521.75;;;16.68;29.71
58769;BME280;44536;47.474;19.056;2023-03-19T15:04:23;100531.84;;;16.74;28.96
58769;BME280;44536;47.474;19.056;2023-03-19T15:07:33;100518.00;;;16.61;29.66
58769;BME280;44536;47.474;19.056;2023-03-19T15:11:00;100526.84;;;16.43;29.54
58769;BME280;44536;47.474;19.056;2023-03-19T15:14:24;100523.91;;;16.82;29.54
58769;BME280;44536;47.474;19.056;2023-03-19T15:17:32;100520.94;;;16.40;29.46
58769;BME280;44536;47.474;19.056;2023-03-19T15:20:43;100529.47;;;16.26;30.13
58769;BME280;44536;47.474;19.056;2023-03-19T15:23:45;100521.47;;;16.16;29.75
58769;BME280;44536;47.474;19.056;2023-03-19T15:26:48;100530.50;;;15.87;30.13
58769;BME280;44536;47.474;19.056;2023-03-19T15:29:52;100535.53;;;15.44;30.74
58769;BME280;44536;47.474;19.056;2023-03-19T15:32:55;100527.66;;;15.13;30.94
58769;BME280;44536;47.474;19.056;2023-03-19T15:36:23;100529.63;;;15.11;31.62
58769;BME280;44536;47.474;19.056;2023-03-19T15:39:32;100528.41;;;14.96;33.06
58769;BME280;44536;47.474;19.056;2023-03-19T15:42:37;100537.38;;;14.85;31.98
58769;BME280;44536;47.474;19.056;2023-03-19T15:45:44;100532.31;;;14.82;31.90
58769;BME280;44536;47.474;19.056;2023-03-19T15:49:00;100532.63;;;14.89;33.13
58769;BME280;44536;47.474;19.056;2023-03-19T15:52:05;100525.75;;;15.06;32.31
58769;BME280;44536;47.474;19.056;2023-03-19T15:55:13;100524.59;;;14.70;32.88
58769;BME280;44536;47.474;19.056;2023-03-19T15:58:22;100536.50;;;14.56;33.19
58769;BME280;44536;47.474;19.056;2023-03-19T16:01:26;100538.91;;;14.49;33.73
58769;BME280;44536;47.474;19.056;2023-03-19T16:04:29;100534.25;;;14.42;35.75
58769;BME280;44536;47.474;19.056;2023-03-19T16:07:51;100537.88;;;14.41;34.41
58769;BME280;44536;47.474;19.056;2023-03-19T16:11:35;100537.25;;;14.28;35.75
58769;BME280;44536;47.474;19.056;2023-03-19T16:14:41;100545.06;;;14.10;36.17
58769;BME280;44536;47.474;19.056;2023-03-19T16:17:43;100542.50;;;13.99;35.63
58769;BME280;44536;47.474;19.056;2023-03-19T16:24:20;100548.72;;;13.78;37.00
58769;BME280;44536;47.474;19.056;2023-03-19T16:27:38;100546.88;;;13.48;36.19
58769;BME280;44536;47.474;19.056;2023-03-19T16:30:49;100540.56;;;13.29;37.27
58769;BME280;44536;47.474;19.056;2023-03-19T16:33:52;100544.16;;;13.07;37.06
58769;BME280;44536;47.474;19.056;2023-03-19T16:36:55;100541.69;;;12.94;38.53
58769;BME280;44536;47.474;19.056;2023-03-19T16:43:21;100542.84;;;12.69;38.74
58769;BME280;44536;47.474;19.056;2023-03-19T16:46:24;100551.09;;;12.66;38.21
58769;BME280;44536;47.474;19.056;2023-03-19T16:49:27;100560.19;;;12.52;39.09
58769;BME280;44536;47.474;19.056;2023-03-19T16:52:29;100560.13;;;12.43;41.04
58769;BME280;44536;47.474;19.056;2023-03-19T16:55:34;100569.06;;;12.31;40.45
58769;BME280;44536;47.474;19.056;2023-03-19T16:58:42;100567.25;;;12.20;40.14
58769;BME280;44536;47.474;19.056;2023-03-19T17:01:45;100562.56;;;12.12;41.60
58769;BME280;44536;47.474;19.056;2023-03-19T17:04:48;100569.19;;;12.07;42.30
58769;BME280;44536;47.474;19.056;2023-03-19T17:07:50;100561.56;;;12.02;42.89
58769;BME280;44536;47.474;19.056;2023-03-19T17:10:53;100573.78;;;12.05;41.54
58769;BME280;44536;47.474;19.056;2023-03-19T17:13:57;100570.03;;;12.07;42.01
58769;BME280;44536;47.474;19.056;2023-03-19T17:17:00;100573.19;;;12.12;40.25
58769;BME280;44536;47.474;19.056;2023-03-19T17:20:03;100579.72;;;12.19;39.85
58769;BME280;44536;47.474;19.056;2023-03-19T17:23:11;100578.50;;;12.23;39.46
58769;BME280;44536;47.474;19.056;2023-03-19T17:26:17;100573.19;;;12.23;39.40
58769;BME280;44536;47.474;19.056;2023-03-19T17:29:20;100580.91;;;12.26;39.16
58769;BME280;44536;47.474;19.056;2023-03-19T17:32:25;100584.06;;;12.32;40.84
58769;BME280;44536;47.474;19.056;2023-03-19T17:35:27;100580.66;;;12.30;43.48
58769;BME280;44536;47.474;19.056;2023-03-19T17:38:31;100572.56;;;12.20;41.58
58769;BME280;44536;47.474;19.056;2023-03-19T17:41:34;100577.75;;;12.44;39.64
58769;BME280;44536;47.474;19.056;2023-03-19T17:44:37;100583.75;;;12.57;39.37
58769;BME280;44536;47.474;19.056;2023-03-19T17:47:41;100578.91;;;12.62;39.22
58769;BME280;44536;47.474;19.056;2023-03-19T17:50:44;100586.78;;;12.64;39.29
58769;BME280;44536;47.474;19.056;2023-03-19T17:53:49;100572.03;;;12.59;40.06
58769;BME280;44536;47.474;19.056;2023-03-19T17:56:54;100578.03;;;12.73;38.95
58769;BME280;44536;47.474;19.056;2023-03-19T17:59:56;100582.66;;;12.71;39.70